Latest Weather Observations for Scottsdale

IDT60801

Issued at 11:02 pm EST Monday 24 April 2017 (issued every 30 minutes, with the page automatically refreshed every 10 minutes)

About weather observations | Map of weather stations | Latest weather observations for TAS | Other Formats
Station Details ID: 091219 Name: SCOTTSDALE (WEST MINSTONE ROAD) Lat: -41.17 Lon: 147.49 Height: 197.5 m
Data from the previous 72 hours. | See also: Recent months at Scottsdale
Date/Time
EST
Temp
°C
App
Temp
°C
Dew
Point
°C
Rel
Hum
%
Delta-T
°C
Wind Press
QNH
hPa
Press
MSL
hPa
Rain since
9am
mm
Dir  Spd
km/h
Gust
km/h
Spd
kts
Gust
kts
24/11:00pm 14.5 14.5 14.3 99 0.1 NW 7 13 4 7 1012.9 - 0.2
24/10:30pm 14.7 14.0 14.3 97 0.2 NNW 11 13 6 7 1013.1 - 0.2
24/10:00pm 14.8 14.9 14.5 98 0.2 NNW 7 11 4 6 1013.5 - 0.2
24/09:30pm 14.8 14.5 14.5 98 0.2 N 9 13 5 7 1013.7 - 0.2
24/09:00pm 14.5 14.2 14.3 99 0.1 N 9 9 5 5 1013.9 1013.9 0.2
24/08:30pm 14.4 13.6 14.0 97 0.2 NNE 11 13 6 7 1014.0 - 0.2
24/08:00pm 14.6 14.2 14.2 97 0.2 N 9 11 5 6 1014.3 - 0.2
24/07:30pm 14.9 14.7 14.6 98 0.2 N 9 11 5 6 1014.4 - 0.2
24/07:00pm 15.0 15.1 14.5 97 0.3 N 7 11 4 6 1014.5 - 0.2
24/06:30pm 15.2 15.0 14.7 97 0.3 NNW 9 11 5 6 1014.6 - 0.2
24/06:00pm 15.2 15.0 14.7 97 0.3 NNW 9 13 5 7 1014.6 1014.6 0.2
24/05:30pm 15.3 15.6 14.4 94 0.5 NNW 6 7 3 4 1014.8 - 0.2
24/05:00pm 15.3 15.5 14.6 96 0.4 N 7 9 4 5 1014.9 - 0.2
24/04:30pm 15.7 14.7 14.5 93 0.7 N 13 17 7 9 1015.2 - 0.2
24/04:00pm 16.4 14.4 13.9 85 1.4 NNW 17 22 9 12 1015.4 - 0.2
24/03:30pm 17.1 14.7 13.8 81 1.9 N 19 24 10 13 1015.5 - 0.2
24/03:00pm 17.0 14.2 13.3 79 2.1 NNW 20 28 11 15 1015.5 1015.5 0.2
24/02:30pm 19.0 17.5 13.0 68 3.4 N 13 19 7 10 1015.6 - 0.2
24/02:00pm 17.5 16.4 14.2 81 1.9 NNE 13 19 7 10 1015.9 - 0.2
24/01:30pm 16.7 15.2 14.3 86 1.4 NNE 15 19 8 10 1016.5 - 0.0
24/01:00pm 16.5 16.1 14.1 86 1.4 NNE 9 13 5 7 1017.0 - 0.0
24/12:30pm 16.7 14.9 13.3 80 1.9 NE 15 20 8 11 1017.6 - 0.0
24/12:00pm 16.8 15.3 13.1 79 2.1 ENE 13 17 7 9 1018.4 1018.4 0.0
24/11:30am 17.1 14.8 13.0 77 2.3 NE 17 20 9 11 1019.0 - 0.0
24/11:00am 17.0 15.1 12.9 77 2.3 NE 15 19 8 10 1019.4 - 0.0
24/10:30am 16.3 13.9 12.7 79 2.0 NE 17 20 9 11 1019.6 - 0.0
24/10:00am 16.0 15.1 12.6 80 1.9 ENE 9 15 5 8 1020.0 - 0.0
24/09:30am 16.0 15.4 12.4 79 2.0 ESE 7 11 4 6 1020.4 - 0.0
24/09:00am 16.0 15.4 12.4 79 2.0 E 7 13 4 7 1020.6 1020.6 0.0
24/08:30am 15.3 15.2 12.2 82 1.7 ENE 4 11 2 6 1020.9 - 0.0
24/08:00am 14.8 14.3 12.2 84 1.4 E 6 9 3 5 1020.8 - 0.0
24/07:30am 14.0 13.5 12.2 89 1.0 S 6 9 3 5 1020.8 - 0.0
24/07:00am 14.3 12.2 11.3 82 1.6 SE 13 17 7 9 1020.7 - 0.0
24/06:30am 14.2 12.5 11.2 82 1.6 SE 11 13 6 7 1020.9 - 0.0
24/06:00am 13.9 12.3 11.5 85 1.3 SE 11 13 6 7 1021.0 1021.0 0.0
24/05:30am 14.3 12.5 10.9 80 1.8 SE 11 15 6 8 1021.2 - 0.0
24/05:00am 14.0 13.1 11.4 84 1.4 E 7 9 4 5 1021.3 - 0.0
24/04:30am 13.9 13.1 11.7 86 1.2 ESE 7 9 4 5 1021.3 - 0.0
24/04:00am 13.8 12.7 12.0 89 1.0 SSE 9 11 5 6 1021.4 - 0.0
24/03:30am 13.7 13.1 12.2 91 0.8 SSE 7 9 4 5 1021.4 - 0.0
24/03:00am 13.7 13.1 12.4 92 0.7 SSE 7 9 4 5 1021.6 1021.7 0.0
24/02:30am 13.7 13.3 13.0 96 0.4 SSE 7 9 4 5 1021.9 - 0.0
24/02:00am 13.8 13.3 12.7 93 0.6 S 7 9 4 5 1022.1 - 0.0
24/01:30am 13.7 13.4 12.6 93 0.6 SSW 6 7 3 4 1022.4 - 0.0
24/01:00am 13.6 14.4 12.5 93 0.6 CALM 0 0 0 0 1022.6 - 0.0
24/12:30am 13.7 14.4 12.2 91 0.8 CALM 0 0 0 0 1022.8 - 0.0
24/12:00am 13.5 14.1 12.0 91 0.8 CALM 0 0 0 0 1023.0 1023.1 0.0
 
Date/Time
EST
Temp
°C
App
Temp
°C
Dew
Point
°C
Rel
Hum
%
Delta-T
°C
Wind Press
QNH
hPa
Press
MSL
hPa
Rain since
9am
mm
Dir  Spd
km/h
Gust
km/h
Spd
kts
Gust
kts
23/11:30pm 14.2 15.0 12.4 89 1.0 CALM 0 0 0 0 1023.4 - 0.0
23/11:00pm 14.4 14.4 12.4 88 1.1 SSE 4 6 2 3 1023.7 - 0.0
23/10:30pm 14.5 13.8 12.1 85 1.3 ESE 7 9 4 5 1023.9 - 0.0
23/10:00pm 14.6 13.2 12.2 85 1.3 SSE 11 13 6 7 1024.1 - 0.0
23/09:30pm 14.6 14.0 12.4 87 1.2 SSE 7 9 4 5 1024.2 - 0.0
23/09:00pm 14.5 15.0 12.7 89 1.0 E 2 9 1 5 1024.1 1024.1 0.0
23/08:30pm 14.8 15.8 13.2 90 0.9 CALM 0 0 0 0 1024.1 - 0.0
23/08:00pm 14.8 14.7 13.2 90 0.9 ENE 6 6 3 3 1024.0 - 0.0
23/07:30pm 15.0 16.0 13.2 89 1.0 CALM 0 0 0 0 1023.9 - 0.0
23/07:00pm 15.1 16.3 13.7 91 0.8 CALM 0 0 0 0 1023.8 - 0.0
23/06:30pm 15.3 16.3 13.1 87 1.2 CALM 0 0 0 0 1023.7 - 0.0
23/06:00pm 15.5 16.4 12.8 84 1.5 CALM 0 0 0 0 1023.5 1023.5 0.0
23/05:30pm 15.6 15.3 12.7 83 1.6 E 6 9 3 5 1023.1 - 0.0
23/05:00pm 16.0 15.7 12.6 80 1.9 E 6 7 3 4 1023.0 - 0.0
23/04:30pm 16.2 15.7 12.8 80 1.9 ENE 7 11 4 6 1022.9 - 0.0
23/04:00pm 16.3 15.5 12.9 80 1.9 ESE 9 13 5 7 1022.9 - 0.0
23/03:30pm 16.2 15.4 12.8 80 1.9 ENE 9 13 5 7 1023.0 - 0.0
23/03:00pm 16.5 15.0 13.1 80 1.9 ENE 13 15 7 8 1022.9 1023.0 0.0
23/02:30pm 16.3 14.5 13.3 82 1.7 NE 15 17 8 9 1022.9 - 0.0
23/02:00pm 16.6 15.9 14.2 86 1.4 NNE 11 15 6 8 1023.0 - 0.0
23/01:30pm 16.1 15.5 13.4 84 1.5 ENE 9 11 5 6 1023.2 - 0.0
23/01:00pm 15.9 15.0 13.6 86 1.3 ENE 11 15 6 8 1023.1 - 0.0
23/12:30pm 15.7 15.1 13.6 87 1.2 ENE 9 11 5 6 1023.5 - 0.0
23/12:00pm 16.3 15.5 12.9 80 1.9 ENE 9 15 5 8 1023.8 1023.8 0.0
23/11:30am 16.3 15.6 13.1 81 1.8 ENE 9 13 5 7 1024.0 - 0.0
23/11:00am 16.1 15.1 13.4 84 1.5 NE 11 13 6 7 1024.2 - 0.0
23/10:30am 16.2 15.0 12.8 80 1.9 E 11 15 6 8 1024.3 - 0.0
23/10:00am 16.2 15.4 13.0 81 1.8 ESE 9 15 5 8 1024.4 - 0.0
23/09:30am 15.7 14.5 12.8 83 1.6 E 11 15 6 8 1024.5 - 0.0
23/09:00am 15.5 14.4 13.0 85 1.4 E 11 17 6 9 1024.4 1024.4 1.2
23/08:30am 15.1 13.3 13.3 89 1.0 ESE 15 20 8 11 1024.3 - 1.2
23/08:00am 15.0 13.6 13.4 90 0.9 E 13 17 7 9 1024.2 - 1.2
23/07:30am 14.7 14.7 14.2 97 0.3 E 7 9 4 5 1024.0 - 1.2
23/07:00am 14.7 14.7 14.3 97 0.2 SE 7 9 4 5 1023.5 - 1.2
23/06:30am 14.6 15.9 14.2 97 0.2 CALM 0 0 0 0 1023.2 - 1.2
23/06:00am 14.4 15.7 14.0 97 0.2 CALM 0 0 0 0 1023.2 1023.3 1.0
23/05:30am 14.6 15.9 14.1 97 0.3 CALM 0 0 0 0 1023.0 - 1.0
23/05:00am 14.7 14.9 14.2 97 0.3 SE 6 7 3 4 1022.8 - 1.0
23/04:30am 14.6 14.8 14.2 97 0.2 SE 6 9 3 5 1022.5 - 1.0
23/04:00am 14.9 15.2 14.6 98 0.2 SSE 6 7 3 4 1022.7 - 1.0
23/03:30am 15.0 15.2 14.8 99 0.1 SSE 7 9 4 5 1022.7 - 1.0
23/03:00am 15.0 15.4 14.8 99 0.1 SE 6 7 3 4 1022.6 1022.7 1.0
23/02:30am 15.2 16.8 15.0 99 0.1 CALM 0 0 0 0 1022.9 - 1.0
23/02:00am 15.3 17.0 15.1 99 0.1 CALM 0 0 0 0 1022.9 - 1.0
23/01:30am 15.2 16.8 14.9 98 0.2 CALM 0 0 0 0 1022.9 - 1.0
23/01:00am 15.2 16.8 15.0 99 0.1 CALM 0 0 0 0 1022.9 - 1.0
23/12:30am 15.3 17.0 15.1 99 0.1 CALM 0 0 0 0 1023.0 - 1.0
23/12:00am 15.4 17.1 15.1 98 0.2 CALM 0 0 0 0 1023.0 1023.1 1.0
 
Date/Time
EST
Temp
°C
App
Temp
°C
Dew
Point
°C
Rel
Hum
%
Delta-T
°C
Wind Press
QNH
hPa
Press
MSL
hPa
Rain since
9am
mm
Dir  Spd
km/h
Gust
km/h
Spd
kts
Gust
kts
22/11:30pm 15.5 17.2 15.2 98 0.2 CALM 0 0 0 0 1023.0 - 1.0
22/11:00pm 15.6 17.3 15.3 98 0.2 CALM 0 0 0 0 1023.0 - 1.0
22/10:30pm 15.6 17.3 15.3 98 0.2 CALM 0 0 0 0 1023.0 - 1.0
22/10:00pm 15.6 17.3 15.3 98 0.2 CALM 0 0 0 0 1023.0 - 1.0
22/09:30pm 15.6 17.3 15.3 98 0.2 CALM 0 0 0 0 1023.1 - 1.0
22/09:00pm 15.4 17.1 15.1 98 0.2 CALM 0 0 0 0 1022.9 1023.0 1.0
22/08:30pm 15.3 16.9 15.0 98 0.2 CALM 0 0 0 0 1022.8 - 1.0
22/08:00pm 15.4 17.1 15.1 98 0.2 CALM 0 0 0 0 1022.7 - 1.0
22/07:30pm 15.6 17.3 15.3 98 0.2 CALM 0 0 0 0 1022.5 - 1.0
22/07:00pm 15.8 17.6 15.6 99 0.1 CALM 0 6 0 3 1022.4 - 1.0
22/06:30pm 16.0 16.7 15.5 97 0.3 NW 6 7 3 4 1022.3 - 1.0
22/06:00pm 16.1 16.8 15.6 97 0.3 N 6 7 3 4 1022.0 1022.1 1.0
22/05:30pm 16.2 18.1 15.7 97 0.3 CALM 0 0 0 0 1021.9 - 1.0
22/05:00pm 16.3 18.1 15.6 96 0.4 CALM 0 0 0 0 1021.7 - 1.0
22/04:30pm 16.3 16.8 15.6 96 0.4 N 7 7 4 4 1021.6 - 1.0
22/04:00pm 16.3 17.0 15.6 96 0.4 N 6 7 3 4 1021.5 - 1.0
22/03:30pm 16.2 16.9 15.5 96 0.4 NW 6 7 3 4 1021.4 - 1.0
22/03:00pm 16.1 16.6 15.6 97 0.3 NW 7 9 4 5 1021.4 1021.4 1.0
22/02:30pm 15.9 16.3 15.4 97 0.3 NW 7 11 4 6 1021.3 - 0.8
22/02:00pm 15.9 15.9 15.2 96 0.4 NNW 9 13 5 7 1021.3 - 0.8
22/01:30pm 16.1 16.2 15.4 96 0.4 NNW 9 13 5 7 1021.3 - 0.8
22/01:00pm 16.7 17.3 15.7 94 0.6 NNW 7 9 4 5 1021.5 - 0.8
22/12:30pm 16.2 16.8 15.7 97 0.3 NNW 7 11 4 6 1021.7 - 0.8
22/12:00pm 16.2 16.4 15.7 97 0.3 NNW 9 13 5 7 1022.0 1022.1 0.4
22/11:30am 17.5 17.8 15.1 86 1.4 N 7 9 4 5 1022.2 - 0.0
22/11:00am 17.5 16.6 14.9 85 1.5 NNE 13 15 7 8 1022.4 - 0.0
22/10:30am 17.9 17.4 15.0 83 1.7 N 11 15 6 8 1022.6 - 0.0
22/10:00am 17.7 17.4 14.4 81 1.9 NNE 9 11 5 6 1022.5 - 0.0
22/09:30am 17.4 18.3 13.9 80 2.0 ESE 2 7 1 4 1022.5 - 0.0
22/09:00am 17.1 18.5 14.3 83 1.6 CALM 0 0 0 0 1022.7 1022.7 0.0
22/08:30am 16.1 17.5 14.4 90 1.0 CALM 0 6 0 3 1022.8 - 0.0
22/08:00am 15.5 16.9 14.3 92 0.7 CALM 0 7 0 4 1022.5 - 0.0
22/07:30am 15.2 15.7 14.0 92 0.7 S 4 6 2 3 1022.3 - 0.0
22/07:00am 14.8 14.6 13.6 92 0.7 S 7 7 4 4 1022.0 - 0.0
22/06:30am 14.7 14.5 13.6 93 0.6 S 7 9 4 5 1021.7 - 0.0
22/06:00am 14.9 14.4 13.7 92 0.7 S 9 11 5 6 1021.6 1021.7 0.0
22/05:30am 15.0 14.5 13.8 92 0.7 SE 9 11 5 6 1021.5 - 0.0
22/05:00am 15.3 14.5 13.9 91 0.8 SSE 11 13 6 7 1021.5 - 0.0
22/04:30am 14.9 14.8 13.8 93 0.6 S 7 9 4 5 1021.5 - 0.0
22/04:00am 14.6 14.4 13.7 94 0.5 SSE 7 11 4 6 1021.5 - 0.0
22/03:30am 14.8 13.5 13.6 92 0.7 SSE 13 15 7 8 1021.5 - 0.0
22/03:00am 14.7 13.8 13.6 93 0.6 SSE 11 13 6 7 1021.7 1021.8 0.0
22/02:30am 14.9 14.3 13.5 91 0.8 SE 9 11 5 6 1022.0 - 0.0
22/02:00am 15.2 14.7 13.8 91 0.8 E 9 11 5 6 1022.2 - 0.0
22/01:30am 15.0 14.4 13.6 91 0.8 NE 9 11 5 6 1022.5 - 0.0
22/01:00am 14.8 14.2 13.4 91 0.8 E 9 11 5 6 1022.6 - 0.0
22/12:30am 14.8 14.5 13.2 90 0.9 E 7 7 4 4 1022.6 - 0.0
22/12:00am 14.8 14.2 13.4 91 0.8 ESE 9 9 5 5 1022.7 1022.8 0.0
 
Date/Time
EST
Temp
°C
App
Temp
°C
Dew
Point
°C
Rel
Hum
%
Delta-T
°C
Wind Press
QNH
hPa
Press
MSL
hPa
Rain since
9am
mm
Dir  Spd
km/h
Gust
km/h
Spd
kts
Gust
kts
21/11:30pm 14.2 13.4 12.9 92 0.7 SE 9 11 5 6 1022.7 - 0.0

Other Formats:

Comma delimited format used in spreadsheet applications
http://www.bom.gov.au/fwo/IDT60801/IDT60801.94972.axf

JavaScript Object Notation format (JSON) in row-major order
http://www.bom.gov.au/fwo/IDT60801/IDT60801.94972.json